sensor_id;sensor_type;location;lat;lon;timestamp;P1;P2;P0
49644;PMS5003;36494;50.730;-1.932;2024-01-30T00:00:21;2;2;
49644;PMS5003;36494;50.730;-1.932;2024-01-30T00:02:46;4;2;
49644;PMS5003;36494;50.730;-1.932;2024-01-30T00:05:11;1;0;
49644;PMS5003;36494;50.730;-1.932;2024-01-30T00:07:37;4;3;
49644;PMS5003;36494;50.730;-1.932;2024-01-30T00:10:02;2;1;
49644;PMS5003;36494;50.730;-1.932;2024-01-30T00:12:28;2;2;
49644;PMS5003;36494;50.730;-1.932;2024-01-30T00:14:57;0;0;
49644;PMS5003;36494;50.730;-1.932;2024-01-30T00:17:19;3;2;
49644;PMS5003;36494;50.730;-1.932;2024-01-30T00:19:45;1;1;
49644;PMS5003;36494;50.730;-1.932;2024-01-30T00:22:10;0;0;
49644;PMS5003;36494;50.730;-1.932;2024-01-30T00:24:35;0;0;
49644;PMS5003;36494;50.730;-1.932;2024-01-30T00:27:01;1;0;
49644;PMS5003;36494;50.730;-1.932;2024-01-30T00:29:27;2;2;
49644;PMS5003;36494;50.730;-1.932;2024-01-30T00:31:52;2;2;
49644;PMS5003;36494;50.730;-1.932;2024-01-30T00:34:18;1;1;
49644;PMS5003;36494;50.730;-1.932;2024-01-30T00:36:43;1;1;
49644;PMS5003;36494;50.730;-1.932;2024-01-30T00:39:09;1;1;
49644;PMS5003;36494;50.730;-1.932;2024-01-30T00:41:34;4;2;
49644;PMS5003;36494;50.730;-1.932;2024-01-30T00:44:00;0;0;
49644;PMS5003;36494;50.730;-1.932;2024-01-30T00:46:25;0;0;
49644;PMS5003;36494;50.730;-1.932;2024-01-30T00:48:50;1;1;
49644;PMS5003;36494;50.730;-1.932;2024-01-30T00:51:16;0;0;
49644;PMS5003;36494;50.730;-1.932;2024-01-30T00:53:41;1;1;
49644;PMS5003;36494;50.730;-1.932;2024-01-30T00:56:06;2;1;
49644;PMS5003;36494;50.730;-1.932;2024-01-30T00:58:32;6;2;
49644;PMS5003;36494;50.730;-1.932;2024-01-30T01:00:57;2;2;
49644;PMS5003;36494;50.730;-1.932;2024-01-30T01:03:25;3;3;
49644;PMS5003;36494;50.730;-1.932;2024-01-30T01:05:47;1;1;
49644;PMS5003;36494;50.730;-1.932;2024-01-30T01:08:13;2;2;
49644;PMS5003;36494;50.730;-1.932;2024-01-30T01:10:38;5;5;
49644;PMS5003;36494;50.730;-1.932;2024-01-30T01:13:04;1;1;
49644;PMS5003;36494;50.730;-1.932;2024-01-30T01:15:31;2;2;
49644;PMS5003;36494;50.730;-1.932;2024-01-30T01:17:55;4;4;
49644;PMS5003;36494;50.730;-1.932;2024-01-30T01:20:20;0;0;
49644;PMS5003;36494;50.730;-1.932;2024-01-30T01:22:45;4;4;
49644;PMS5003;36494;50.730;-1.932;2024-01-30T01:25:11;2;2;
49644;PMS5003;36494;50.730;-1.932;2024-01-30T01:27:36;2;2;
49644;PMS5003;36494;50.730;-1.932;2024-01-30T01:30:01;2;2;
49644;PMS5003;36494;50.730;-1.932;2024-01-30T01:32:27;2;2;
49644;PMS5003;36494;50.730;-1.932;2024-01-30T01:34:52;2;1;
49644;PMS5003;36494;50.730;-1.932;2024-01-30T01:37:19;4;3;
49644;PMS5003;36494;50.730;-1.932;2024-01-30T01:39:44;1;1;
49644;PMS5003;36494;50.730;-1.932;2024-01-30T01:42:09;0;0;
49644;PMS5003;36494;50.730;-1.932;2024-01-30T01:44:35;2;2;
49644;PMS5003;36494;50.730;-1.932;2024-01-30T01:47:00;2;2;
49644;PMS5003;36494;50.730;-1.932;2024-01-30T01:49:26;4;2;
49644;PMS5003;36494;50.730;-1.932;2024-01-30T01:51:51;3;3;
49644;PMS5003;36494;50.730;-1.932;2024-01-30T01:54:17;4;4;
49644;PMS5003;36494;50.730;-1.932;2024-01-30T01:56:42;2;2;
49644;PMS5003;36494;50.730;-1.932;2024-01-30T01:59:08;2;2;
49644;PMS5003;36494;50.730;-1.932;2024-01-30T02:01:33;2;2;
49644;PMS5003;36494;50.730;-1.932;2024-01-30T02:03:58;4;1;
49644;PMS5003;36494;50.730;-1.932;2024-01-30T02:06:23;1;1;
49644;PMS5003;36494;50.730;-1.932;2024-01-30T02:08:49;2;2;
49644;PMS5003;36494;50.730;-1.932;2024-01-30T02:11:14;2;1;
49644;PMS5003;36494;50.730;-1.932;2024-01-30T02:13:40;1;1;
49644;PMS5003;36494;50.730;-1.932;2024-01-30T02:16:08;1;1;
49644;PMS5003;36494;50.730;-1.932;2024-01-30T02:18:30;1;1;
49644;PMS5003;36494;50.730;-1.932;2024-01-30T02:20:56;0;0;
49644;PMS5003;36494;50.730;-1.932;2024-01-30T02:23:21;1;1;
49644;PMS5003;36494;50.730;-1.932;2024-01-30T02:25:46;1;1;
49644;PMS5003;36494;50.730;-1.932;2024-01-30T02:28:11;0;0;
49644;PMS5003;36494;50.730;-1.932;2024-01-30T02:30:37;1;1;
49644;PMS5003;36494;50.730;-1.932;2024-01-30T02:33:02;0;0;
49644;PMS5003;36494;50.730;-1.932;2024-01-30T02:35:27;0;0;
49644;PMS5003;36494;50.730;-1.932;2024-01-30T02:37:53;0;0;
49644;PMS5003;36494;50.730;-1.932;2024-01-30T02:40:18;0;0;
49644;PMS5003;36494;50.730;-1.932;2024-01-30T02:42:43;2;2;
49644;PMS5003;36494;50.730;-1.932;2024-01-30T02:45:09;1;1;
49644;PMS5003;36494;50.730;-1.932;2024-01-30T02:47:34;1;1;
49644;PMS5003;36494;50.730;-1.932;2024-01-30T02:49:59;0;0;
49644;PMS5003;36494;50.730;-1.932;2024-01-30T02:52:28;1;1;
49644;PMS5003;36494;50.730;-1.932;2024-01-30T02:54:50;1;1;
49644;PMS5003;36494;50.730;-1.932;2024-01-30T02:57:15;1;1;
49644;PMS5003;36494;50.730;-1.932;2024-01-30T02:59:41;0;0;
49644;PMS5003;36494;50.730;-1.932;2024-01-30T03:02:06;0;0;
49644;PMS5003;36494;50.730;-1.932;2024-01-30T03:04:31;0;0;
49644;PMS5003;36494;50.730;-1.932;2024-01-30T03:06:57;0;0;
49644;PMS5003;36494;50.730;-1.932;2024-01-30T03:09:22;0;0;
49644;PMS5003;36494;50.730;-1.932;2024-01-30T03:11:47;0;0;
49644;PMS5003;36494;50.730;-1.932;2024-01-30T03:14:13;0;0;
49644;PMS5003;36494;50.730;-1.932;2024-01-30T03:16:43;0;0;
49644;PMS5003;36494;50.730;-1.932;2024-01-30T03:19:05;0;0;
49644;PMS5003;36494;50.730;-1.932;2024-01-30T03:21:29;0;0;
49644;PMS5003;36494;50.730;-1.932;2024-01-30T03:23:54;0;0;
49644;PMS5003;36494;50.730;-1.932;2024-01-30T03:26:19;0;0;
49644;PMS5003;36494;50.730;-1.932;2024-01-30T03:28:45;0;0;
49644;PMS5003;36494;50.730;-1.932;2024-01-30T03:31:10;0;0;
49644;PMS5003;36494;50.730;-1.932;2024-01-30T03:33:36;0;0;
49644;PMS5003;36494;50.730;-1.932;2024-01-30T03:36:02;0;0;
49644;PMS5003;36494;50.730;-1.932;2024-01-30T03:38:26;0;0;
49644;PMS5003;36494;50.730;-1.932;2024-01-30T03:40:52;0;0;
49644;PMS5003;36494;50.730;-1.932;2024-01-30T03:43:17;0;0;
49644;PMS5003;36494;50.730;-1.932;2024-01-30T03:45:42;0;0;
49644;PMS5003;36494;50.730;-1.932;2024-01-30T03:48:07;0;0;
49644;PMS5003;36494;50.730;-1.932;2024-01-30T03:50:33;1;1;
49644;PMS5003;36494;50.730;-1.932;2024-01-30T03:53:00;0;0;
49644;PMS5003;36494;50.730;-1.932;2024-01-30T03:55:24;0;0;
49644;PMS5003;36494;50.730;-1.932;2024-01-30T03:57:49;0;0;
49644;PMS5003;36494;50.730;-1.932;2024-01-30T04:00:15;0;0;
49644;PMS5003;36494;50.730;-1.932;2024-01-30T04:02:40;0;0;
49644;PMS5003;36494;50.730;-1.932;2024-01-30T04:05:09;1;1;
49644;PMS5003;36494;50.730;-1.932;2024-01-30T04:07:31;0;0;
49644;PMS5003;36494;50.730;-1.932;2024-01-30T04:09:56;0;0;
49644;PMS5003;36494;50.730;-1.932;2024-01-30T04:12:21;0;0;
49644;PMS5003;36494;50.730;-1.932;2024-01-30T04:14:47;1;1;
49644;PMS5003;36494;50.730;-1.932;2024-01-30T04:17:12;1;0;
49644;PMS5003;36494;50.730;-1.932;2024-01-30T04:19:38;0;0;
49644;PMS5003;36494;50.730;-1.932;2024-01-30T04:22:03;1;0;
49644;PMS5003;36494;50.730;-1.932;2024-01-30T04:24:28;0;0;
49644;PMS5003;36494;50.730;-1.932;2024-01-30T04:26:54;0;0;
49644;PMS5003;36494;50.730;-1.932;2024-01-30T04:29:23;0;0;
49644;PMS5003;36494;50.730;-1.932;2024-01-30T04:31:44;1;1;
49644;PMS5003;36494;50.730;-1.932;2024-01-30T04:34:10;0;0;
49644;PMS5003;36494;50.730;-1.932;2024-01-30T04:36:35;0;0;
49644;PMS5003;36494;50.730;-1.932;2024-01-30T04:39:00;1;1;
49644;PMS5003;36494;50.730;-1.932;2024-01-30T04:41:26;0;0;
49644;PMS5003;36494;50.730;-1.932;2024-01-30T04:43:51;0;0;
49644;PMS5003;36494;50.730;-1.932;2024-01-30T04:46:16;0;0;
49644;PMS5003;36494;50.730;-1.932;2024-01-30T04:48:42;0;0;
49644;PMS5003;36494;50.730;-1.932;2024-01-30T04:51:07;0;0;
49644;PMS5003;36494;50.730;-1.932;2024-01-30T04:53:33;0;0;
49644;PMS5003;36494;50.730;-1.932;2024-01-30T04:55:58;0;0;
49644;PMS5003;36494;50.730;-1.932;2024-01-30T04:58:23;1;1;
49644;PMS5003;36494;50.730;-1.932;2024-01-30T05:00:48;0;0;
49644;PMS5003;36494;50.730;-1.932;2024-01-30T05:03:14;0;0;
49644;PMS5003;36494;50.730;-1.932;2024-01-30T05:05:41;0;0;
49644;PMS5003;36494;50.730;-1.932;2024-01-30T05:08:05;0;0;
49644;PMS5003;36494;50.730;-1.932;2024-01-30T05:10:30;2;1;
49644;PMS5003;36494;50.730;-1.932;2024-01-30T05:12:56;2;1;
49644;PMS5003;36494;50.730;-1.932;2024-01-30T05:15:21;2;2;
49644;PMS5003;36494;50.730;-1.932;2024-01-30T05:17:49;1;1;
49644;PMS5003;36494;50.730;-1.932;2024-01-30T05:20:12;2;2;
49644;PMS5003;36494;50.730;-1.932;2024-01-30T05:22:37;5;5;
49644;PMS5003;36494;50.730;-1.932;2024-01-30T05:25:03;6;6;
49644;PMS5003;36494;50.730;-1.932;2024-01-30T05:27:28;3;3;
49644;PMS5003;36494;50.730;-1.932;2024-01-30T05:29:55;4;3;
49644;PMS5003;36494;50.730;-1.932;2024-01-30T05:32:19;4;4;
49644;PMS5003;36494;50.730;-1.932;2024-01-30T05:34:44;3;3;
49644;PMS5003;36494;50.730;-1.932;2024-01-30T05:37:10;5;4;
49644;PMS5003;36494;50.730;-1.932;2024-01-30T05:39:35;3;3;
49644;PMS5003;36494;50.730;-1.932;2024-01-30T05:42:01;2;2;
49644;PMS5003;36494;50.730;-1.932;2024-01-30T05:44:26;3;3;
49644;PMS5003;36494;50.730;-1.932;2024-01-30T05:46:51;3;3;
49644;PMS5003;36494;50.730;-1.932;2024-01-30T05:49:17;3;3;
49644;PMS5003;36494;50.730;-1.932;2024-01-30T05:51:42;2;2;
49644;PMS5003;36494;50.730;-1.932;2024-01-30T05:54:07;2;2;
49644;PMS5003;36494;50.730;-1.932;2024-01-30T05:56:32;3;2;
49644;PMS5003;36494;50.730;-1.932;2024-01-30T05:58:58;4;3;
49644;PMS5003;36494;50.730;-1.932;2024-01-30T06:01:23;3;3;
49644;PMS5003;36494;50.730;-1.932;2024-01-30T06:03:50;3;3;
49644;PMS5003;36494;50.730;-1.932;2024-01-30T06:06:14;3;3;
49644;PMS5003;36494;50.730;-1.932;2024-01-30T06:08:39;3;3;
49644;PMS5003;36494;50.730;-1.932;2024-01-30T06:11:05;4;4;
49644;PMS5003;36494;50.730;-1.932;2024-01-30T06:13:30;2;2;
49644;PMS5003;36494;50.730;-1.932;2024-01-30T06:15:55;3;3;
49644;PMS5003;36494;50.730;-1.932;2024-01-30T06:18:21;4;4;
49644;PMS5003;36494;50.730;-1.932;2024-01-30T06:20:46;5;4;
49644;PMS5003;36494;50.730;-1.932;2024-01-30T06:23:12;5;5;
49644;PMS5003;36494;50.730;-1.932;2024-01-30T06:25:37;5;5;
49644;PMS5003;36494;50.730;-1.932;2024-01-30T06:28:03;11;10;
49644;PMS5003;36494;50.730;-1.932;2024-01-30T06:30:28;8;5;
49644;PMS5003;36494;50.730;-1.932;2024-01-30T06:32:53;4;4;
49644;PMS5003;36494;50.730;-1.932;2024-01-30T06:35:19;6;6;
49644;PMS5003;36494;50.730;-1.932;2024-01-30T06:37:44;6;5;
49644;PMS5003;36494;50.730;-1.932;2024-01-30T06:40:09;7;7;
49644;PMS5003;36494;50.730;-1.932;2024-01-30T06:42:35;7;7;
49644;PMS5003;36494;50.730;-1.932;2024-01-30T06:45:00;7;7;
49644;PMS5003;36494;50.730;-1.932;2024-01-30T06:47:25;4;4;
49644;PMS5003;36494;50.730;-1.932;2024-01-30T06:49:50;7;6;
49644;PMS5003;36494;50.730;-1.932;2024-01-30T06:52:15;7;7;
49644;PMS5003;36494;50.730;-1.932;2024-01-30T06:54:41;8;8;
49644;PMS5003;36494;50.730;-1.932;2024-01-30T06:57:06;9;8;
49644;PMS5003;36494;50.730;-1.932;2024-01-30T06:59:31;7;7;
49644;PMS5003;36494;50.730;-1.932;2024-01-30T07:01:57;7;7;
49644;PMS5003;36494;50.730;-1.932;2024-01-30T07:04:22;7;6;
49644;PMS5003;36494;50.730;-1.932;2024-01-30T07:06:48;7;7;
49644;PMS5003;36494;50.730;-1.932;2024-01-30T07:09:12;8;7;
49644;PMS5003;36494;50.730;-1.932;2024-01-30T07:11:38;9;9;
49644;PMS5003;36494;50.730;-1.932;2024-01-30T07:14:03;7;7;
49644;PMS5003;36494;50.730;-1.932;2024-01-30T07:16:28;8;8;
49644;PMS5003;36494;50.730;-1.932;2024-01-30T07:18:55;8;8;
49644;PMS5003;36494;50.730;-1.932;2024-01-30T07:21:19;8;8;
49644;PMS5003;36494;50.730;-1.932;2024-01-30T07:23:44;7;7;
49644;PMS5003;36494;50.730;-1.932;2024-01-30T07:26:09;9;7;
49644;PMS5003;36494;50.730;-1.932;2024-01-30T07:28:35;7;7;
49644;PMS5003;36494;50.730;-1.932;2024-01-30T07:31:03;9;9;
49644;PMS5003;36494;50.730;-1.932;2024-01-30T07:33:25;9;9;
49644;PMS5003;36494;50.730;-1.932;2024-01-30T07:35:51;11;11;
49644;PMS5003;36494;50.730;-1.932;2024-01-30T07:38:16;9;9;
49644;PMS5003;36494;50.730;-1.932;2024-01-30T07:40:42;9;9;
49644;PMS5003;36494;50.730;-1.932;2024-01-30T07:43:07;10;9;
49644;PMS5003;36494;50.730;-1.932;2024-01-30T07:45:32;16;16;
49644;PMS5003;36494;50.730;-1.932;2024-01-30T07:47:58;13;13;
49644;PMS5003;36494;50.730;-1.932;2024-01-30T07:50:24;10;10;
49644;PMS5003;36494;50.730;-1.932;2024-01-30T07:52:49;9;8;
49644;PMS5003;36494;50.730;-1.932;2024-01-30T07:55:15;9;9;
49644;PMS5003;36494;50.730;-1.932;2024-01-30T07:57:40;13;12;
49644;PMS5003;36494;50.730;-1.932;2024-01-30T08:00:06;14;12;
49644;PMS5003;36494;50.730;-1.932;2024-01-30T08:02:30;12;12;
49644;PMS5003;36494;50.730;-1.932;2024-01-30T08:04:56;15;15;
49644;PMS5003;36494;50.730;-1.932;2024-01-30T08:07:23;15;13;
49644;PMS5003;36494;50.730;-1.932;2024-01-30T08:09:47;13;13;
49644;PMS5003;36494;50.730;-1.932;2024-01-30T08:12:12;13;13;
49644;PMS5003;36494;50.730;-1.932;2024-01-30T08:14:37;10;10;
49644;PMS5003;36494;50.730;-1.932;2024-01-30T08:17:03;9;9;
49644;PMS5003;36494;50.730;-1.932;2024-01-30T08:19:28;8;8;
49644;PMS5003;36494;50.730;-1.932;2024-01-30T08:21:53;12;12;
49644;PMS5003;36494;50.730;-1.932;2024-01-30T08:24:19;9;9;
49644;PMS5003;36494;50.730;-1.932;2024-01-30T08:26:44;11;10;
49644;PMS5003;36494;50.730;-1.932;2024-01-30T08:29:10;9;8;
49644;PMS5003;36494;50.730;-1.932;2024-01-30T08:31:35;9;8;
49644;PMS5003;36494;50.730;-1.932;2024-01-30T08:34:00;9;9;
49644;PMS5003;36494;50.730;-1.932;2024-01-30T08:36:25;13;13;
49644;PMS5003;36494;50.730;-1.932;2024-01-30T08:38:51;10;10;
49644;PMS5003;36494;50.730;-1.932;2024-01-30T08:41:16;16;15;
49644;PMS5003;36494;50.730;-1.932;2024-01-30T08:43:42;9;9;
49644;PMS5003;36494;50.730;-1.932;2024-01-30T08:46:07;15;15;
49644;PMS5003;36494;50.730;-1.932;2024-01-30T08:48:32;10;9;
49644;PMS5003;36494;50.730;-1.932;2024-01-30T08:50:58;11;10;
49644;PMS5003;36494;50.730;-1.932;2024-01-30T08:53:23;11;11;
49644;PMS5003;36494;50.730;-1.932;2024-01-30T08:55:49;8;8;
49644;PMS5003;36494;50.730;-1.932;2024-01-30T08:58:14;13;12;
49644;PMS5003;36494;50.730;-1.932;2024-01-30T09:00:39;11;11;
49644;PMS5003;36494;50.730;-1.932;2024-01-30T09:03:05;9;9;
49644;PMS5003;36494;50.730;-1.932;2024-01-30T09:05:31;9;9;
49644;PMS5003;36494;50.730;-1.932;2024-01-30T09:07:57;9;9;
49644;PMS5003;36494;50.730;-1.932;2024-01-30T09:10:21;11;10;
49644;PMS5003;36494;50.730;-1.932;2024-01-30T09:12:46;10;9;
49644;PMS5003;36494;50.730;-1.932;2024-01-30T09:15:12;11;9;
49644;PMS5003;36494;50.730;-1.932;2024-01-30T09:17:37;11;10;
49644;PMS5003;36494;50.730;-1.932;2024-01-30T09:20:03;14;13;
49644;PMS5003;36494;50.730;-1.932;2024-01-30T09:22:28;9;9;
49644;PMS5003;36494;50.730;-1.932;2024-01-30T09:24:54;10;9;
49644;PMS5003;36494;50.730;-1.932;2024-01-30T09:27:19;10;10;
49644;PMS5003;36494;50.730;-1.932;2024-01-30T09:29:44;9;9;
49644;PMS5003;36494;50.730;-1.932;2024-01-30T09:32:10;10;10;
49644;PMS5003;36494;50.730;-1.932;2024-01-30T09:34:35;13;10;
49644;PMS5003;36494;50.730;-1.932;2024-01-30T09:37:00;13;13;
49644;PMS5003;36494;50.730;-1.932;2024-01-30T09:39:26;11;10;
49644;PMS5003;36494;50.730;-1.932;2024-01-30T09:41:54;10;9;
49644;PMS5003;36494;50.730;-1.932;2024-01-30T09:44:16;10;10;
49644;PMS5003;36494;50.730;-1.932;2024-01-30T09:46:42;10;9;
49644;PMS5003;36494;50.730;-1.932;2024-01-30T09:49:08;10;9;
49644;PMS5003;36494;50.730;-1.932;2024-01-30T09:51:33;13;12;
49644;PMS5003;36494;50.730;-1.932;2024-01-30T09:53:59;9;8;
49644;PMS5003;36494;50.730;-1.932;2024-01-30T09:56:24;8;8;
49644;PMS5003;36494;50.730;-1.932;2024-01-30T09:58:49;10;9;
49644;PMS5003;36494;50.730;-1.932;2024-01-30T10:01:14;7;7;
49644;PMS5003;36494;50.730;-1.932;2024-01-30T10:03:39;6;5;
49644;PMS5003;36494;50.730;-1.932;2024-01-30T10:06:07;9;9;
49644;PMS5003;36494;50.730;-1.932;2024-01-30T10:08:30;6;5;
49644;PMS5003;36494;50.730;-1.932;2024-01-30T10:10:55;6;6;
49644;PMS5003;36494;50.730;-1.932;2024-01-30T10:13:21;6;6;
49644;PMS5003;36494;50.730;-1.932;2024-01-30T10:15:47;9;9;
49644;PMS5003;36494;50.730;-1.932;2024-01-30T10:18:11;6;6;
49644;PMS5003;36494;50.730;-1.932;2024-01-30T10:20:37;5;5;
49644;PMS5003;36494;50.730;-1.932;2024-01-30T10:23:02;6;5;
49644;PMS5003;36494;50.730;-1.932;2024-01-30T10:25:28;6;5;
49644;PMS5003;36494;50.730;-1.932;2024-01-30T10:27:53;9;9;
49644;PMS5003;36494;50.730;-1.932;2024-01-30T10:30:18;4;4;
49644;PMS5003;36494;50.730;-1.932;2024-01-30T10:32:44;6;6;
49644;PMS5003;36494;50.730;-1.932;2024-01-30T10:35:09;6;6;
49644;PMS5003;36494;50.730;-1.932;2024-01-30T10:37:34;5;5;
49644;PMS5003;36494;50.730;-1.932;2024-01-30T10:40:00;8;7;
49644;PMS5003;36494;50.730;-1.932;2024-01-30T10:42:25;8;7;
49644;PMS5003;36494;50.730;-1.932;2024-01-30T10:44:55;5;5;
49644;PMS5003;36494;50.730;-1.932;2024-01-30T10:47:17;5;5;
49644;PMS5003;36494;50.730;-1.932;2024-01-30T10:49:41;7;7;
49644;PMS5003;36494;50.730;-1.932;2024-01-30T10:52:06;5;5;
49644;PMS5003;36494;50.730;-1.932;2024-01-30T10:54:31;9;8;
49644;PMS5003;36494;50.730;-1.932;2024-01-30T10:56:57;14;14;
49644;PMS5003;36494;50.730;-1.932;2024-01-30T10:59:23;7;7;
49644;PMS5003;36494;50.730;-1.932;2024-01-30T11:01:48;10;10;
49644;PMS5003;36494;50.730;-1.932;2024-01-30T11:04:14;4;4;
49644;PMS5003;36494;50.730;-1.932;2024-01-30T11:06:40;6;5;
49644;PMS5003;36494;50.730;-1.932;2024-01-30T11:09:10;9;9;
49644;PMS5003;36494;50.730;-1.932;2024-01-30T11:11:30;4;4;
49644;PMS5003;36494;50.730;-1.932;2024-01-30T11:13:55;7;7;
49644;PMS5003;36494;50.730;-1.932;2024-01-30T11:16:21;6;5;
49644;PMS5003;36494;50.730;-1.932;2024-01-30T11:18:49;8;7;
49644;PMS5003;36494;50.730;-1.932;2024-01-30T11:21:12;7;7;
49644;PMS5003;36494;50.730;-1.932;2024-01-30T11:23:38;7;6;
49644;PMS5003;36494;50.730;-1.932;2024-01-30T11:26:02;12;10;
49644;PMS5003;36494;50.730;-1.932;2024-01-30T11:28:31;8;7;
49644;PMS5003;36494;50.730;-1.932;2024-01-30T11:31:02;7;6;
49644;PMS5003;36494;50.730;-1.932;2024-01-30T11:35:44;3;3;
49644;PMS5003;36494;50.730;-1.932;2024-01-30T11:38:09;7;6;
49644;PMS5003;36494;50.730;-1.932;2024-01-30T11:40:34;4;4;
49644;PMS5003;36494;50.730;-1.932;2024-01-30T11:42:59;5;5;
49644;PMS5003;36494;50.730;-1.932;2024-01-30T11:45:24;6;5;
49644;PMS5003;36494;50.730;-1.932;2024-01-30T11:47:50;6;5;
49644;PMS5003;36494;50.730;-1.932;2024-01-30T11:50:15;7;5;
49644;PMS5003;36494;50.730;-1.932;2024-01-30T11:52:41;6;4;
49644;PMS5003;36494;50.730;-1.932;2024-01-30T11:55:08;6;5;
49644;PMS5003;36494;50.730;-1.932;2024-01-30T11:57:32;6;6;
49644;PMS5003;36494;50.730;-1.932;2024-01-30T11:59:57;3;3;
49644;PMS5003;36494;50.730;-1.932;2024-01-30T12:02:23;4;3;
49644;PMS5003;36494;50.730;-1.932;2024-01-30T12:04:48;10;9;
49644;PMS5003;36494;50.730;-1.932;2024-01-30T12:07:14;4;4;
49644;PMS5003;36494;50.730;-1.932;2024-01-30T12:09:39;6;5;
49644;PMS5003;36494;50.730;-1.932;2024-01-30T12:12:04;3;3;
49644;PMS5003;36494;50.730;-1.932;2024-01-30T12:14:30;5;5;
49644;PMS5003;36494;50.730;-1.932;2024-01-30T12:16:55;3;3;
49644;PMS5003;36494;50.730;-1.932;2024-01-30T12:19:24;4;4;
49644;PMS5003;36494;50.730;-1.932;2024-01-30T12:21:45;7;7;
49644;PMS5003;36494;50.730;-1.932;2024-01-30T12:24:10;3;3;
49644;PMS5003;36494;50.730;-1.932;2024-01-30T12:26:36;3;3;
49644;PMS5003;36494;50.730;-1.932;2024-01-30T12:29:03;4;4;
49644;PMS5003;36494;50.730;-1.932;2024-01-30T12:31:27;3;3;
49644;PMS5003;36494;50.730;-1.932;2024-01-30T12:33:52;4;4;
49644;PMS5003;36494;50.730;-1.932;2024-01-30T12:36:17;6;6;
49644;PMS5003;36494;50.730;-1.932;2024-01-30T12:38:42;4;4;
49644;PMS5003;36494;50.730;-1.932;2024-01-30T12:41:07;5;5;
49644;PMS5003;36494;50.730;-1.932;2024-01-30T12:43:33;4;3;
49644;PMS5003;36494;50.730;-1.932;2024-01-30T12:45:58;6;6;
49644;PMS5003;36494;50.730;-1.932;2024-01-30T12:48:24;7;7;
49644;PMS5003;36494;50.730;-1.932;2024-01-30T12:50:49;6;6;
49644;PMS5003;36494;50.730;-1.932;2024-01-30T12:53:15;7;7;
49644;PMS5003;36494;50.730;-1.932;2024-01-30T12:55:44;10;10;
49644;PMS5003;36494;50.730;-1.932;2024-01-30T12:58:06;9;9;
49644;PMS5003;36494;50.730;-1.932;2024-01-30T13:00:31;4;4;
49644;PMS5003;36494;50.730;-1.932;2024-01-30T13:06:58;7;6;
49644;PMS5003;36494;50.730;-1.932;2024-01-30T13:09:23;6;5;
49644;PMS5003;36494;50.730;-1.932;2024-01-30T13:11:49;5;4;
49644;PMS5003;36494;50.730;-1.932;2024-01-30T13:14:14;12;10;
49644;PMS5003;36494;50.730;-1.932;2024-01-30T13:16:39;5;5;
49644;PMS5003;36494;50.730;-1.932;2024-01-30T13:19:05;12;10;
49644;PMS5003;36494;50.730;-1.932;2024-01-30T13:21:30;9;9;
49644;PMS5003;36494;50.730;-1.932;2024-01-30T13:23:55;7;7;
49644;PMS5003;36494;50.730;-1.932;2024-01-30T13:26:21;12;10;
49644;PMS5003;36494;50.730;-1.932;2024-01-30T13:28:46;10;10;
49644;PMS5003;36494;50.730;-1.932;2024-01-30T13:31:12;10;10;
49644;PMS5003;36494;50.730;-1.932;2024-01-30T13:33:37;12;9;
49644;PMS5003;36494;50.730;-1.932;2024-01-30T13:36:03;7;5;
49644;PMS5003;36494;50.730;-1.932;2024-01-30T13:38:28;10;10;
49644;PMS5003;36494;50.730;-1.932;2024-01-30T13:40:57;7;6;
49644;PMS5003;36494;50.730;-1.932;2024-01-30T13:43:19;10;9;
49644;PMS5003;36494;50.730;-1.932;2024-01-30T13:45:45;5;4;
49644;PMS5003;36494;50.730;-1.932;2024-01-30T13:48:10;7;7;
49644;PMS5003;36494;50.730;-1.932;2024-01-30T13:50:35;8;7;
49644;PMS5003;36494;50.730;-1.932;2024-01-30T13:53:03;7;6;
49644;PMS5003;36494;50.730;-1.932;2024-01-30T13:55:26;7;7;
49644;PMS5003;36494;50.730;-1.932;2024-01-30T13:57:51;6;6;
49644;PMS5003;36494;50.730;-1.932;2024-01-30T14:00:16;6;6;
49644;PMS5003;36494;50.730;-1.932;2024-01-30T14:02:42;5;5;
49644;PMS5003;36494;50.730;-1.932;2024-01-30T14:05:07;5;5;
49644;PMS5003;36494;50.730;-1.932;2024-01-30T14:07:33;8;7;
49644;PMS5003;36494;50.730;-1.932;2024-01-30T14:09:58;10;9;
49644;PMS5003;36494;50.730;-1.932;2024-01-30T14:12:24;7;7;
49644;PMS5003;36494;50.730;-1.932;2024-01-30T14:14:49;4;3;
49644;PMS5003;36494;50.730;-1.932;2024-01-30T14:17:16;6;5;
49644;PMS5003;36494;50.730;-1.932;2024-01-30T14:19:40;6;6;
49644;PMS5003;36494;50.730;-1.932;2024-01-30T14:22:05;4;4;
49644;PMS5003;36494;50.730;-1.932;2024-01-30T14:24:31;5;4;
49644;PMS5003;36494;50.730;-1.932;2024-01-30T14:26:56;6;5;
49644;PMS5003;36494;50.730;-1.932;2024-01-30T14:29:21;4;4;
49644;PMS5003;36494;50.730;-1.932;2024-01-30T14:31:47;3;3;
49644;PMS5003;36494;50.730;-1.932;2024-01-30T14:34:12;5;5;
49644;PMS5003;36494;50.730;-1.932;2024-01-30T14:36:37;6;5;
49644;PMS5003;36494;50.730;-1.932;2024-01-30T14:39:03;5;5;
49644;PMS5003;36494;50.730;-1.932;2024-01-30T14:41:28;4;4;
49644;PMS5003;36494;50.730;-1.932;2024-01-30T14:43:54;3;3;
49644;PMS5003;36494;50.730;-1.932;2024-01-30T14:46:19;5;5;
49644;PMS5003;36494;50.730;-1.932;2024-01-30T14:48:45;6;5;
49644;PMS5003;36494;50.730;-1.932;2024-01-30T14:51:10;4;4;
49644;PMS5003;36494;50.730;-1.932;2024-01-30T14:53:38;6;5;
49644;PMS5003;36494;50.730;-1.932;2024-01-30T14:56:01;5;5;
49644;PMS5003;36494;50.730;-1.932;2024-01-30T14:58:26;16;16;
49644;PMS5003;36494;50.730;-1.932;2024-01-30T15:00:51;9;9;
49644;PMS5003;36494;50.730;-1.932;2024-01-30T15:03:17;9;8;
49644;PMS5003;36494;50.730;-1.932;2024-01-30T15:05:48;4;4;
49644;PMS5003;36494;50.730;-1.932;2024-01-30T15:08:07;12;11;
49644;PMS5003;36494;50.730;-1.932;2024-01-30T15:10:33;9;9;
49644;PMS5003;36494;50.730;-1.932;2024-01-30T15:12:58;7;7;
49644;PMS5003;36494;50.730;-1.932;2024-01-30T15:15:23;6;6;
49644;PMS5003;36494;50.730;-1.932;2024-01-30T15:17:49;9;9;
49644;PMS5003;36494;50.730;-1.932;2024-01-30T15:20:14;7;7;
49644;PMS5003;36494;50.730;-1.932;2024-01-30T15:22:39;7;7;
49644;PMS5003;36494;50.730;-1.932;2024-01-30T15:25:05;10;10;
49644;PMS5003;36494;50.730;-1.932;2024-01-30T15:27:30;10;10;
49644;PMS5003;36494;50.730;-1.932;2024-01-30T15:29:56;7;7;
49644;PMS5003;36494;50.730;-1.932;2024-01-30T15:32:21;7;7;
49644;PMS5003;36494;50.730;-1.932;2024-01-30T15:34:46;8;8;
49644;PMS5003;36494;50.730;-1.932;2024-01-30T15:37:12;6;5;
49644;PMS5003;36494;50.730;-1.932;2024-01-30T15:39:38;18;18;
49644;PMS5003;36494;50.730;-1.932;2024-01-30T15:42:04;8;7;
49644;PMS5003;36494;50.730;-1.932;2024-01-30T15:44:29;8;6;
49644;PMS5003;36494;50.730;-1.932;2024-01-30T15:46:54;6;6;
49644;PMS5003;36494;50.730;-1.932;2024-01-30T15:49:19;5;5;
49644;PMS5003;36494;50.730;-1.932;2024-01-30T15:51:45;6;5;
49644;PMS5003;36494;50.730;-1.932;2024-01-30T15:54:10;5;5;
49644;PMS5003;36494;50.730;-1.932;2024-01-30T15:56:36;5;4;
49644;PMS5003;36494;50.730;-1.932;2024-01-30T15:59:01;5;5;
49644;PMS5003;36494;50.730;-1.932;2024-01-30T16:01:26;5;5;
49644;PMS5003;36494;50.730;-1.932;2024-01-30T16:03:52;6;6;
49644;PMS5003;36494;50.730;-1.932;2024-01-30T16:06:17;12;12;
49644;PMS5003;36494;50.730;-1.932;2024-01-30T16:08:42;7;7;
49644;PMS5003;36494;50.730;-1.932;2024-01-30T16:11:08;5;5;
49644;PMS5003;36494;50.730;-1.932;2024-01-30T16:13:33;6;5;
49644;PMS5003;36494;50.730;-1.932;2024-01-30T16:15:59;8;7;
49644;PMS5003;36494;50.730;-1.932;2024-01-30T16:18:24;14;13;
49644;PMS5003;36494;50.730;-1.932;2024-01-30T16:20:49;6;6;